Cochran, Texas
Current Conditions -  °F | °C
As of 6:55 AM on Friday 19 Dec 2014 (Local Time) from K11R Reporting Station
Thunderstorm Thunderstorm  
Wind Chill: 53°   Ceiling: 600
Heat Index: 53°   Visibility: 4mi
Dew Point: 52°   Wind: 12mph
Humidity: 97%   Direction: 10°N
Pressure: 30.05"   Gusts: 20mph
Location:  29.9944°N, 96.2595°W
Report Text: K11R 191255Z AUTO 01010G17KT 4SM +TSRA BKN006 OVC011 12/11 A3005 RMK AO2 LTG DSNT SE P0029 T01170112
Loading
Personal Weather Stations






























Interactive Weather Map New forecast layout! Learn more

10-Day Weather Forecast

Advertisements
Track Severe Weather on mobile